createdAt,value
2023-02-11T00:27:00.446Z,4.43
2023-02-11T00:29:58.147Z,4.57
2023-02-11T00:32:55.944Z,4.60
2023-02-11T00:35:53.602Z,4.90
2023-02-11T00:38:52.669Z,5.27
2023-02-11T00:41:51.287Z,5.33
2023-02-11T00:44:49.233Z,4.90
2023-02-11T00:47:47.014Z,3.80
2023-02-11T00:50:45.142Z,5.00
2023-02-11T00:53:42.875Z,5.53
2023-02-11T00:56:40.693Z,6.30
2023-02-11T00:59:38.585Z,7.13
2023-02-11T01:02:36.543Z,6.23
2023-02-11T01:05:34.475Z,6.37
2023-02-11T01:08:32.300Z,5.03
2023-02-11T01:11:30.045Z,6.00
2023-02-11T01:14:27.829Z,5.20
2023-02-11T01:17:25.482Z,5.10
2023-02-11T01:20:26.272Z,6.60
2023-02-11T01:23:24.169Z,5.00
2023-02-11T01:26:21.986Z,5.43
2023-02-11T01:29:19.652Z,5.47
2023-02-11T01:32:17.681Z,5.80
2023-02-11T01:35:15.782Z,6.33
2023-02-11T01:38:19.446Z,5.20
2023-02-11T01:41:17.687Z,5.83
2023-02-11T01:44:33.660Z,5.50
2023-02-11T01:47:31.713Z,4.80
2023-02-11T01:50:29.657Z,5.17
2023-02-11T01:53:43.496Z,5.77
2023-02-11T01:57:02.261Z,4.77
2023-02-11T02:00:13.340Z,5.97
2023-02-11T02:03:16.479Z,7.00
2023-02-11T02:06:25.360Z,6.85
2023-02-11T02:09:26.665Z,6.03
2023-02-11T02:12:24.412Z,5.27
2023-02-11T02:15:27.200Z,4.70
2023-02-11T02:18:41.472Z,4.38
2023-02-11T02:22:10.976Z,4.30
2023-02-11T02:25:35.557Z,4.53
2023-02-11T02:29:02.239Z,5.10
2023-02-11T02:32:30.534Z,6.40
2023-02-11T02:35:45.684Z,6.20
2023-02-11T02:38:51.530Z,6.30
2023-02-11T02:41:51.500Z,7.33
2023-02-11T02:44:50.963Z,6.67
2023-02-11T02:47:48.742Z,7.47
2023-02-11T02:50:47.245Z,7.97
2023-02-11T02:54:01.284Z,7.20
2023-02-11T02:57:13.212Z,6.97
2023-02-11T03:00:33.668Z,6.47
2023-02-11T03:04:06.217Z,7.67
2023-02-11T03:07:26.932Z,9.23
2023-02-11T03:10:32.519Z,7.23
2023-02-11T03:13:34.562Z,6.73
2023-02-11T03:16:39.243Z,6.77
2023-02-11T03:19:44.432Z,9.67
2023-02-11T03:22:48.502Z,6.43
2023-02-11T03:25:53.772Z,4.93
2023-02-11T03:29:11.230Z,6.60
2023-02-11T03:32:28.698Z,8.77
2023-02-11T03:35:35.984Z,8.47
2023-02-11T03:38:38.199Z,7.73
2023-02-11T03:41:37.139Z,8.07
2023-02-11T03:44:42.035Z,8.00
2023-02-11T03:47:44.109Z,6.40
2023-02-11T03:50:42.963Z,5.93
2023-02-11T03:53:43.978Z,7.00
2023-02-11T03:56:51.766Z,8.07
2023-02-11T03:59:52.333Z,8.27
2023-02-11T04:02:50.118Z,6.30
2023-02-11T04:05:48.700Z,5.87
2023-02-11T04:08:46.692Z,6.90
2023-02-11T04:11:44.346Z,7.17
2023-02-11T04:14:42.245Z,7.07
2023-02-11T04:17:39.937Z,6.18
2023-02-11T04:20:37.737Z,6.25
2023-02-11T04:23:35.599Z,6.95
2023-02-11T04:26:33.896Z,7.25
2023-02-11T04:29:32.448Z,6.77
2023-02-11T04:32:30.250Z,6.83
2023-02-11T04:35:28.305Z,7.72
2023-02-11T04:38:26.077Z,7.17
2023-02-11T04:41:23.711Z,6.53
2023-02-11T04:44:21.463Z,6.75
2023-02-11T04:47:19.179Z,7.22
2023-02-11T04:50:17.001Z,7.60
2023-02-11T04:53:14.658Z,8.38
2023-02-11T04:56:12.376Z,6.73
2023-02-11T04:59:10.283Z,8.10
2023-02-11T05:02:08.119Z,6.88
2023-02-11T05:05:06.539Z,7.57
2023-02-11T05:08:04.444Z,6.65
2023-02-11T05:11:02.652Z,7.43
2023-02-11T05:14:00.637Z,8.05
2023-02-11T05:16:58.387Z,7.88
2023-02-11T05:19:56.224Z,6.55
2023-02-11T05:22:53.923Z,7.97
2023-02-11T05:25:51.949Z,8.10
2023-02-11T05:28:49.824Z,8.43
2023-02-11T05:31:47.543Z,11.73
2023-02-11T05:34:45.354Z,11.13
2023-02-11T05:37:43.238Z,11.70
2023-02-11T05:40:41.367Z,11.35
2023-02-11T05:43:39.325Z,11.43
2023-02-11T05:46:37.275Z,11.60
2023-02-11T05:49:35.558Z,15.57
2023-02-11T05:52:33.220Z,17.77
2023-02-11T05:55:31.286Z,19.15
2023-02-11T05:58:29.142Z,23.77
2023-02-11T06:01:27.655Z,25.48
2023-02-11T06:04:25.365Z,27.27
2023-02-11T06:07:23.108Z,28.48
2023-02-11T06:10:20.873Z,31.05
2023-02-11T06:13:20.197Z,30.52
2023-02-11T06:16:18.021Z,32.05
2023-02-11T06:19:15.911Z,30.33
2023-02-11T06:22:13.546Z,29.98
2023-02-11T06:25:11.909Z,26.92
2023-02-11T06:28:11.030Z,29.13
2023-02-11T06:31:10.259Z,26.15
2023-02-11T06:34:09.739Z,28.27
2023-02-11T06:37:07.667Z,28.15
2023-02-11T06:40:05.923Z,31.65
2023-02-11T06:43:03.868Z,30.13
2023-02-11T06:46:01.537Z,30.15
2023-02-11T06:48:59.541Z,29.15
2023-02-11T06:51:57.182Z,30.90
2023-02-11T06:54:54.919Z,29.27
2023-02-11T06:57:52.632Z,29.38
2023-02-11T07:00:50.510Z,28.50
2023-02-11T07:03:48.311Z,31.60
2023-02-11T07:06:46.182Z,29.35
2023-02-11T07:09:43.946Z,34.28
2023-02-11T07:12:42.023Z,27.98
2023-02-11T07:15:39.646Z,26.92
2023-02-11T07:18:37.787Z,25.40
2023-02-11T07:21:35.559Z,25.52
2023-02-11T07:24:33.450Z,24.33
2023-02-11T07:27:31.120Z,27.33
2023-02-11T07:30:28.946Z,26.55
2023-02-11T07:33:26.558Z,28.98
2023-02-11T07:36:24.378Z,30.25
2023-02-11T07:39:22.967Z,30.95
2023-02-11T07:42:20.744Z,31.35
2023-02-11T07:45:18.518Z,43.05
2023-02-11T07:48:16.223Z,47.55
2023-02-11T07:51:17.079Z,48.67
2023-02-11T07:54:14.809Z,51.47
2023-02-11T07:57:12.642Z,51.80
2023-02-11T08:06:33.354Z,52.83
2023-02-11T08:09:34.134Z,55.17
2023-02-11T08:12:32.245Z,53.92
2023-02-11T08:15:29.929Z,53.60
2023-02-11T08:18:27.780Z,53.22
2023-02-11T08:21:26.325Z,51.95
2023-02-11T08:24:24.363Z,58.38
2023-02-11T08:27:22.001Z,56.63
2023-02-11T08:30:19.942Z,57.95
2023-02-11T08:33:17.635Z,54.78
2023-02-11T08:36:18.584Z,53.75
2023-02-11T08:39:20.818Z,56.42
2023-02-11T08:42:19.011Z,54.93
2023-02-11T08:45:16.676Z,49.40
2023-02-11T08:48:14.440Z,43.28
2023-02-11T08:51:17.121Z,41.70
2023-02-11T08:54:15.452Z,46.58
2023-02-11T08:57:13.233Z,40.05
2023-02-11T09:00:11.645Z,38.13
2023-02-11T09:03:09.278Z,30.25
2023-02-11T09:06:08.642Z,27.40
2023-02-11T09:09:06.767Z,20.85
2023-02-11T09:12:04.793Z,25.17
2023-02-11T09:15:02.602Z,19.95
2023-02-11T09:18:00.642Z,27.65
2023-02-11T09:21:07.846Z,29.15
2023-02-11T09:24:07.155Z,28.63
2023-02-11T09:27:06.108Z,28.65
2023-02-11T09:30:04.519Z,31.85
2023-02-11T09:33:02.270Z,28.27
2023-02-11T09:36:04.745Z,29.58
2023-02-11T09:39:04.516Z,26.77
2023-02-11T09:42:26.672Z,27.90
2023-02-11T09:45:27.922Z,27.75
2023-02-11T09:48:25.752Z,23.92
2023-02-11T09:51:42.600Z,38.33
2023-02-11T09:55:01.647Z,22.48
2023-02-11T09:57:59.568Z,19.15
2023-02-11T10:01:22.392Z,18.70
2023-02-11T10:04:42.795Z,19.10
2023-02-11T10:07:52.607Z,17.17
2023-02-11T10:10:54.501Z,12.75
2023-02-11T10:14:12.078Z,14.15
2023-02-11T10:17:26.152Z,13.82
2023-02-11T10:20:37.875Z,14.90
2023-02-11T10:23:39.324Z,17.38
2023-02-11T10:26:39.012Z,24.75
2023-02-11T10:29:41.098Z,34.80
2023-02-11T10:32:46.433Z,38.53
2023-02-11T10:35:44.446Z,40.78
2023-02-11T10:38:42.362Z,35.97
2023-02-11T10:41:44.847Z,33.17
2023-02-11T10:45:00.302Z,32.00
2023-02-11T10:47:59.809Z,31.52
2023-02-11T10:51:17.325Z,35.47
2023-02-11T10:54:21.674Z,32.10
2023-02-11T10:57:20.620Z,33.53
2023-02-11T11:00:39.354Z,32.72
2023-02-11T11:03:46.247Z,30.25
2023-02-11T11:06:43.962Z,32.97
2023-02-11T11:09:52.555Z,32.08
2023-02-11T11:12:50.304Z,30.75
2023-02-11T11:16:06.949Z,31.00
2023-02-11T11:19:21.764Z,31.20
2023-02-11T11:22:23.243Z,28.85
2023-02-11T11:25:25.317Z,29.63
2023-02-11T11:28:26.932Z,28.27
2023-02-11T11:31:30.664Z,29.85
2023-02-11T11:34:32.505Z,27.48
2023-02-11T11:37:33.084Z,27.88
2023-02-11T11:40:32.750Z,29.27
2023-02-11T11:43:30.615Z,28.75
2023-02-11T11:46:33.062Z,29.73
2023-02-11T11:49:36.368Z,30.57
2023-02-11T11:52:52.684Z,34.05
2023-02-11T11:56:01.059Z,32.05
2023-02-11T11:59:07.122Z,32.60
2023-02-11T12:02:38.616Z,32.60
2023-02-11T12:05:47.707Z,33.20
2023-02-11T12:09:02.414Z,31.98
2023-02-11T12:12:21.943Z,31.52
2023-02-11T12:15:37.083Z,31.65
2023-02-11T12:18:54.800Z,31.63
2023-02-11T12:22:12.375Z,32.38
2023-02-11T12:25:26.370Z,31.17
2023-02-11T12:28:37.795Z,31.02
2023-02-11T12:31:54.102Z,31.30
2023-02-11T12:35:11.845Z,32.92
2023-02-11T12:38:33.004Z,31.65
2023-02-11T12:42:11.410Z,33.03
2023-02-11T12:45:22.891Z,32.35
2023-02-11T12:48:44.621Z,34.72
2023-02-11T12:52:08.488Z,37.00
2023-02-11T12:55:27.335Z,34.75
2023-02-11T12:58:42.898Z,35.75
2023-02-11T13:01:45.196Z,36.85
2023-02-11T13:04:50.696Z,36.92
2023-02-11T13:07:50.807Z,41.97
2023-02-11T13:10:52.855Z,41.20
2023-02-11T13:14:11.627Z,40.67
2023-02-11T13:17:30.101Z,39.40
2023-02-11T13:20:44.947Z,38.67
2023-02-11T13:23:52.961Z,41.15
2023-02-11T13:27:05.982Z,38.95
2023-02-11T13:33:33.791Z,38.90
2023-02-11T13:36:33.633Z,40.13
2023-02-11T13:39:31.390Z,42.63
2023-02-11T13:42:30.669Z,42.65
2023-02-11T13:45:34.417Z,43.20
2023-02-11T13:48:46.927Z,42.88
2023-02-11T13:51:44.763Z,40.13
2023-02-11T13:54:48.156Z,38.80
2023-02-11T14:00:48.048Z,32.17
2023-02-11T14:04:22.234Z,31.37
2023-02-11T14:07:44.694Z,34.38
2023-02-11T14:10:52.384Z,36.30
2023-02-11T14:14:25.568Z,32.55
2023-02-11T14:17:31.422Z,31.48
2023-02-11T14:20:36.998Z,32.25
2023-02-11T14:23:34.759Z,32.25
2023-02-11T14:26:48.183Z,32.38
2023-02-11T14:30:09.477Z,37.92
2023-02-11T14:33:39.853Z,37.80
2023-02-11T14:36:52.323Z,42.50
2023-02-11T14:40:03.258Z,42.03
2023-02-11T14:43:14.033Z,43.45
2023-02-11T14:46:12.654Z,43.95
2023-02-11T14:49:22.087Z,41.42
2023-02-11T14:52:28.584Z,40.83
2023-02-11T14:55:33.583Z,39.05
2023-02-11T14:58:33.362Z,39.00
2023-02-11T15:01:35.580Z,37.50
2023-02-11T15:04:36.673Z,36.75
2023-02-11T15:07:34.931Z,36.58
2023-02-11T15:10:38.553Z,36.50
2023-02-11T15:13:36.479Z,36.00
2023-02-11T15:16:35.622Z,38.13
2023-02-11T15:19:45.548Z,36.03
2023-02-11T15:22:46.211Z,36.35
2023-02-11T15:25:46.724Z,37.40
2023-02-11T15:28:53.621Z,36.72
2023-02-11T15:32:07.349Z,35.13
2023-02-11T15:35:09.088Z,34.35
2023-02-11T15:38:07.131Z,34.88
2023-02-11T15:41:07.933Z,35.50
2023-02-11T15:44:05.655Z,34.85
2023-02-11T15:47:09.965Z,34.20
2023-02-11T15:50:08.472Z,32.75
2023-02-11T15:53:23.706Z,34.05
2023-02-11T15:56:31.230Z,31.92
2023-02-11T15:59:38.879Z,28.67
2023-02-11T16:02:53.671Z,28.38
2023-02-11T16:05:58.091Z,30.63
2023-02-11T16:09:22.835Z,30.10
2023-02-11T16:12:27.789Z,28.50
2023-02-11T16:15:45.960Z,30.17
2023-02-11T16:19:03.204Z,29.92
2023-02-11T16:22:08.814Z,28.75
2023-02-11T16:25:07.722Z,29.70
2023-02-11T16:28:07.189Z,28.35
2023-02-11T16:31:06.053Z,28.33
2023-02-11T16:34:06.317Z,30.08
2023-02-11T16:37:06.680Z,29.45
2023-02-11T16:40:04.388Z,29.77
2023-02-11T16:43:02.550Z,28.90
2023-02-11T16:46:00.462Z,31.65
2023-02-11T16:48:59.676Z,32.75
2023-02-11T16:52:02.244Z,31.63
2023-02-11T16:55:00.529Z,33.25
2023-02-11T16:57:58.698Z,34.42
2023-02-11T17:00:57.969Z,32.38
2023-02-11T17:03:55.655Z,30.08
2023-02-11T17:06:53.976Z,29.55
2023-02-11T17:09:52.646Z,35.63
2023-02-11T17:12:51.667Z,34.88
2023-02-11T17:15:49.858Z,34.38
2023-02-11T17:18:48.590Z,32.03
2023-02-11T17:21:47.504Z,29.20
2023-02-11T17:24:45.285Z,32.65
2023-02-11T17:27:43.301Z,32.92
2023-02-11T17:30:43.222Z,32.83
2023-02-11T17:33:41.086Z,31.58
2023-02-11T17:36:39.032Z,31.63
2023-02-11T17:39:38.405Z,30.33
2023-02-11T17:42:36.312Z,32.08
2023-02-11T17:45:34.695Z,31.85
2023-02-11T17:48:32.515Z,31.58
2023-02-11T17:51:33.287Z,30.42
2023-02-11T17:54:31.176Z,31.77
2023-02-11T17:57:28.869Z,34.15
2023-02-11T18:00:28.893Z,34.15
2023-02-11T18:03:26.822Z,31.90
2023-02-11T18:06:25.425Z,29.42
2023-02-11T18:09:23.226Z,29.10
2023-02-11T18:12:25.679Z,25.98
2023-02-11T18:15:23.910Z,25.27
2023-02-11T18:18:21.824Z,22.70
2023-02-11T18:21:21.295Z,20.63
2023-02-11T18:24:19.757Z,20.98
2023-02-11T18:27:17.472Z,21.23
2023-02-11T18:30:19.078Z,24.77
2023-02-11T18:33:16.804Z,24.95
2023-02-11T18:36:16.546Z,25.25
2023-02-11T18:39:14.243Z,22.52
2023-02-11T18:42:11.996Z,19.33
2023-02-11T18:45:12.953Z,18.15
2023-02-11T18:48:13.051Z,16.80
2023-02-11T18:51:15.328Z,19.52
2023-02-11T18:54:43.157Z,18.52
2023-02-11T18:57:40.952Z,15.70
2023-02-11T19:00:41.745Z,15.27
2023-02-11T19:03:39.533Z,15.55
2023-02-11T19:06:38.712Z,13.85
2023-02-11T19:09:36.941Z,13.77
2023-02-11T19:12:35.437Z,13.80
2023-02-11T19:15:33.256Z,13.10
2023-02-11T19:18:31.368Z,13.30
2023-02-11T19:21:29.760Z,12.48
2023-02-11T19:24:28.932Z,11.68
2023-02-11T19:27:26.617Z,10.50
2023-02-11T19:30:25.675Z,11.80
2023-02-11T19:33:23.367Z,11.40
2023-02-11T19:36:23.211Z,11.18
2023-02-11T19:39:21.416Z,9.90
2023-02-11T19:42:19.359Z,9.15
2023-02-11T19:45:17.054Z,8.30
2023-02-11T19:48:14.887Z,7.97
2023-02-11T19:51:13.403Z,9.07
2023-02-11T19:54:11.618Z,8.00
2023-02-11T19:57:09.294Z,9.30
2023-02-11T20:00:08.096Z,8.70
2023-02-11T20:03:07.212Z,7.80
2023-02-11T20:07:01.181Z,8.77
2023-02-11T20:09:59.521Z,7.60
2023-02-11T20:12:58.211Z,6.40
2023-02-11T20:15:56.981Z,6.63
2023-02-11T20:18:58.071Z,5.28
2023-02-11T20:21:56.181Z,4.75
2023-02-11T20:24:54.198Z,3.43
2023-02-11T20:27:51.909Z,4.47
2023-02-11T20:30:57.681Z,5.32
2023-02-11T20:33:56.869Z,5.93
2023-02-11T20:36:55.911Z,5.05
2023-02-11T20:39:53.774Z,5.00
2023-02-11T20:42:52.668Z,4.03
2023-02-11T20:45:50.813Z,3.90
2023-02-11T20:48:49.050Z,3.40
2023-02-11T20:51:46.890Z,3.17
2023-02-11T20:54:44.689Z,3.30
2023-02-11T20:57:50.137Z,3.15
2023-02-11T21:00:47.909Z,2.93
2023-02-11T21:03:55.801Z,4.10
2023-02-11T21:06:57.699Z,4.05
2023-02-11T21:09:55.423Z,3.95
2023-02-11T21:12:53.399Z,3.43
2023-02-11T21:15:56.371Z,3.72
2023-02-11T21:18:55.852Z,4.13
2023-02-11T21:21:55.573Z,3.60
2023-02-11T21:24:53.362Z,4.00
2023-02-11T21:27:51.206Z,4.65
2023-02-11T21:30:51.899Z,6.30
2023-02-11T21:33:50.404Z,5.28
2023-02-11T21:36:48.143Z,4.90
2023-02-11T21:39:45.809Z,4.07
2023-02-11T21:42:43.734Z,4.00
2023-02-11T21:45:46.285Z,4.15
2023-02-11T21:48:44.235Z,4.43
2023-02-11T21:51:42.098Z,4.40
2023-02-11T21:54:39.888Z,3.97
2023-02-11T21:57:37.529Z,3.30
2023-02-11T22:00:39.818Z,3.73
2023-02-11T22:03:40.247Z,3.97
2023-02-11T22:06:38.355Z,4.40
2023-02-11T22:09:38.295Z,4.43
2023-02-11T22:12:36.207Z,4.40
2023-02-11T22:15:34.191Z,4.20
2023-02-11T22:18:32.304Z,3.30
2023-02-11T22:21:30.694Z,2.97
2023-02-11T22:24:28.564Z,3.22
2023-02-11T22:27:29.478Z,3.97
2023-02-11T22:30:27.269Z,3.90
2023-02-11T22:33:26.102Z,3.05
2023-02-11T22:36:31.365Z,3.80
2023-02-11T22:39:30.073Z,3.63
2023-02-11T22:42:27.807Z,3.67
2023-02-11T22:45:25.703Z,3.20
2023-02-11T22:48:23.482Z,3.53
2023-02-11T22:51:25.100Z,3.97
2023-02-11T22:54:23.290Z,3.95
2023-02-11T22:57:20.933Z,4.20
2023-02-11T23:00:20.347Z,3.83
2023-02-11T23:03:18.128Z,3.87
2023-02-11T23:06:16.265Z,3.47
2023-02-11T23:09:14.390Z,3.35
2023-02-11T23:12:12.135Z,3.90
2023-02-11T23:15:09.889Z,4.47
2023-02-11T23:18:08.678Z,4.53
2023-02-11T23:21:12.501Z,4.93
2023-02-11T23:24:13.994Z,4.30
2023-02-11T23:27:11.674Z,3.65
2023-02-11T23:30:10.163Z,3.10
2023-02-11T23:33:07.867Z,3.33
2023-02-11T23:36:06.046Z,3.80
2023-02-11T23:39:04.136Z,3.67
2023-02-11T23:42:02.241Z,3.47
2023-02-11T23:44:59.866Z,4.00
2023-02-11T23:47:58.552Z,3.70
2023-02-11T23:50:56.504Z,4.23
2023-02-11T23:53:56.769Z,4.87
2023-02-11T23:56:54.428Z,4.70
2023-02-11T23:59:53.912Z,3.83
